Terminal Aerodrome Forecast
Issued by NWS

Home | Current Version | Previous Version | Text Only | Print | Product List | Glossary On
Versions: 1 2 3 4 5 6 7 8 9 10 11 12 13 14 15 16 17 18
000
FTUS43 KLSX 301331 AAA
TAFUIN
TAF AMD
KUIN 301331Z 3014/3112 36005KT 4SM BR SCT040 BKN250
     FM301430 36008KT 3SM -SHRA VCTS BKN020CB
     FM301530 VRB05KT P6SM BKN040 BKN250
     FM301900 VRB05KT 5SM -SHRA VCTS SCT050CB BKN120
     FM310100 35004KT P6SM SCT050 BKN100=

USA.gov is the U.S. government's official web portal to all federal, state and local government web resources and services.